sensor_id;sensor_type;location;lat;lon;timestamp;P1;durP1;ratioP1;P2;durP2;ratioP2
69253;SDS011;56364;41.816;12.448;2023-07-16T00:01:51;15.55;;;6.50;;
69253;SDS011;56364;41.816;12.448;2023-07-16T00:04:18;17.00;;;6.78;;
69253;SDS011;56364;41.816;12.448;2023-07-16T00:06:44;16.85;;;6.68;;
69253;SDS011;56364;41.816;12.448;2023-07-16T00:09:10;18.30;;;6.35;;
69253;SDS011;56364;41.816;12.448;2023-07-16T00:11:36;21.52;;;7.25;;
69253;SDS011;56364;41.816;12.448;2023-07-16T00:14:02;22.10;;;6.82;;
69253;SDS011;56364;41.816;12.448;2023-07-16T00:16:28;16.08;;;6.38;;
69253;SDS011;56364;41.816;12.448;2023-07-16T00:18:54;16.73;;;7.97;;
69253;SDS011;56364;41.816;12.448;2023-07-16T00:21:20;18.58;;;7.20;;
69253;SDS011;56364;41.816;12.448;2023-07-16T00:23:47;23.67;;;8.45;;
69253;SDS011;56364;41.816;12.448;2023-07-16T00:26:13;19.17;;;6.57;;
69253;SDS011;56364;41.816;12.448;2023-07-16T00:28:39;17.38;;;7.13;;
69253;SDS011;56364;41.816;12.448;2023-07-16T00:31:07;16.90;;;6.72;;
69253;SDS011;56364;41.816;12.448;2023-07-16T00:33:37;17.38;;;6.40;;
69253;SDS011;56364;41.816;12.448;2023-07-16T00:36:08;22.80;;;6.28;;
69253;SDS011;56364;41.816;12.448;2023-07-16T00:38:34;15.27;;;6.30;;
69253;SDS011;56364;41.816;12.448;2023-07-16T00:41:00;30.92;;;7.53;;
69253;SDS011;56364;41.816;12.448;2023-07-16T00:43:26;14.27;;;6.85;;
69253;SDS011;56364;41.816;12.448;2023-07-16T00:45:52;13.63;;;6.15;;
69253;SDS011;56364;41.816;12.448;2023-07-16T00:48:18;15.98;;;6.80;;
69253;SDS011;56364;41.816;12.448;2023-07-16T00:50:44;22.33;;;7.93;;
69253;SDS011;56364;41.816;12.448;2023-07-16T00:53:10;22.75;;;6.97;;
69253;SDS011;56364;41.816;12.448;2023-07-16T00:55:38;26.48;;;7.60;;
69253;SDS011;56364;41.816;12.448;2023-07-16T00:58:06;22.58;;;7.03;;
69253;SDS011;56364;41.816;12.448;2023-07-16T01:00:33;19.23;;;7.47;;
69253;SDS011;56364;41.816;12.448;2023-07-16T01:03:00;18.58;;;7.25;;
69253;SDS011;56364;41.816;12.448;2023-07-16T01:05:27;27.88;;;7.53;;
69253;SDS011;56364;41.816;12.448;2023-07-16T01:07:59;19.25;;;6.95;;
69253;SDS011;56364;41.816;12.448;2023-07-16T01:10:27;18.35;;;6.30;;
69253;SDS011;56364;41.816;12.448;2023-07-16T01:12:54;15.73;;;6.88;;
69253;SDS011;56364;41.816;12.448;2023-07-16T01:15:21;19.42;;;6.65;;
69253;SDS011;56364;41.816;12.448;2023-07-16T01:17:47;18.20;;;7.03;;
69253;SDS011;56364;41.816;12.448;2023-07-16T01:20:14;15.82;;;6.45;;
69253;SDS011;56364;41.816;12.448;2023-07-16T01:25:35;17.92;;;6.20;;
69253;SDS011;56364;41.816;12.448;2023-07-16T01:28:10;18.45;;;7.57;;
69253;SDS011;56364;41.816;12.448;2023-07-16T01:30:39;15.98;;;7.47;;
69253;SDS011;56364;41.816;12.448;2023-07-16T01:33:13;16.50;;;7.03;;
69253;SDS011;56364;41.816;12.448;2023-07-16T01:35:41;16.83;;;7.07;;
69253;SDS011;56364;41.816;12.448;2023-07-16T01:38:09;14.02;;;6.47;;
69253;SDS011;56364;41.816;12.448;2023-07-16T01:40:35;13.82;;;6.25;;
69253;SDS011;56364;41.816;12.448;2023-07-16T01:43:01;17.33;;;6.50;;
69253;SDS011;56364;41.816;12.448;2023-07-16T02:01:04;13.75;;;6.07;;
69253;SDS011;56364;41.816;12.448;2023-07-16T02:03:30;20.33;;;7.50;;
69253;SDS011;56364;41.816;12.448;2023-07-16T02:05:57;16.90;;;6.57;;
69253;SDS011;56364;41.816;12.448;2023-07-16T02:08:23;21.92;;;6.95;;
69253;SDS011;56364;41.816;12.448;2023-07-16T02:10:53;14.45;;;6.30;;
69253;SDS011;56364;41.816;12.448;2023-07-16T02:13:19;15.52;;;6.60;;
69253;SDS011;56364;41.816;12.448;2023-07-16T02:15:46;16.95;;;7.32;;
69253;SDS011;56364;41.816;12.448;2023-07-16T02:18:12;15.50;;;6.95;;
69253;SDS011;56364;41.816;12.448;2023-07-16T02:20:38;14.82;;;6.25;;
69253;SDS011;56364;41.816;12.448;2023-07-16T02:23:06;21.67;;;7.05;;
69253;SDS011;56364;41.816;12.448;2023-07-16T02:25:47;13.82;;;6.72;;
69253;SDS011;56364;41.816;12.448;2023-07-16T02:28:13;17.52;;;7.50;;
69253;SDS011;56364;41.816;12.448;2023-07-16T02:30:40;16.15;;;7.60;;
69253;SDS011;56364;41.816;12.448;2023-07-16T02:33:06;16.02;;;6.57;;
69253;SDS011;56364;41.816;12.448;2023-07-16T02:35:47;16.77;;;6.47;;
69253;SDS011;56364;41.816;12.448;2023-07-16T02:38:14;15.00;;;5.72;;
69253;SDS011;56364;41.816;12.448;2023-07-16T02:40:46;14.80;;;6.53;;
69253;SDS011;56364;41.816;12.448;2023-07-16T02:43:13;15.25;;;6.32;;
69253;SDS011;56364;41.816;12.448;2023-07-16T02:45:39;19.10;;;6.80;;
69253;SDS011;56364;41.816;12.448;2023-07-16T02:48:06;15.20;;;7.28;;
69253;SDS011;56364;41.816;12.448;2023-07-16T02:50:36;17.02;;;6.60;;
69253;SDS011;56364;41.816;12.448;2023-07-16T02:53:05;19.10;;;7.22;;
69253;SDS011;56364;41.816;12.448;2023-07-16T02:55:32;19.23;;;6.75;;
69253;SDS011;56364;41.816;12.448;2023-07-16T02:57:58;15.73;;;6.57;;
69253;SDS011;56364;41.816;12.448;2023-07-16T03:00:27;17.90;;;7.30;;
69253;SDS011;56364;41.816;12.448;2023-07-16T03:02:54;16.85;;;7.38;;
69253;SDS011;56364;41.816;12.448;2023-07-16T03:05:20;19.83;;;6.13;;
69253;SDS011;56364;41.816;12.448;2023-07-16T03:07:46;16.05;;;6.75;;
69253;SDS011;56364;41.816;12.448;2023-07-16T03:10:12;13.10;;;6.78;;
69253;SDS011;56364;41.816;12.448;2023-07-16T03:12:38;11.35;;;7.05;;
69253;SDS011;56364;41.816;12.448;2023-07-16T03:15:04;19.05;;;7.15;;
69253;SDS011;56364;41.816;12.448;2023-07-16T03:17:30;19.25;;;6.57;;
69253;SDS011;56364;41.816;12.448;2023-07-16T03:19:56;21.77;;;7.78;;
69253;SDS011;56364;41.816;12.448;2023-07-16T03:22:22;15.35;;;6.93;;
69253;SDS011;56364;41.816;12.448;2023-07-16T03:24:48;13.75;;;6.75;;
69253;SDS011;56364;41.816;12.448;2023-07-16T03:27:14;14.43;;;7.78;;
69253;SDS011;56364;41.816;12.448;2023-07-16T03:29:43;27.38;;;7.32;;
69253;SDS011;56364;41.816;12.448;2023-07-16T03:32:09;21.38;;;6.95;;
69253;SDS011;56364;41.816;12.448;2023-07-16T03:34:35;22.10;;;7.72;;
69253;SDS011;56364;41.816;12.448;2023-07-16T03:37:01;20.88;;;6.88;;
69253;SDS011;56364;41.816;12.448;2023-07-16T03:39:27;17.30;;;6.95;;
69253;SDS011;56364;41.816;12.448;2023-07-16T03:41:53;17.83;;;6.78;;
69253;SDS011;56364;41.816;12.448;2023-07-16T03:44:19;15.80;;;6.95;;
69253;SDS011;56364;41.816;12.448;2023-07-16T03:46:45;17.15;;;6.30;;
69253;SDS011;56364;41.816;12.448;2023-07-16T03:49:11;26.42;;;6.70;;
69253;SDS011;56364;41.816;12.448;2023-07-16T03:51:37;17.50;;;6.65;;
69253;SDS011;56364;41.816;12.448;2023-07-16T03:54:03;14.70;;;6.88;;
69253;SDS011;56364;41.816;12.448;2023-07-16T03:56:30;14.07;;;6.45;;
69253;SDS011;56364;41.816;12.448;2023-07-16T03:58:56;19.30;;;6.63;;
69253;SDS011;56364;41.816;12.448;2023-07-16T04:01:22;21.20;;;6.65;;
69253;SDS011;56364;41.816;12.448;2023-07-16T04:03:51;16.83;;;6.60;;
69253;SDS011;56364;41.816;12.448;2023-07-16T04:06:17;10.95;;;6.20;;
69253;SDS011;56364;41.816;12.448;2023-07-16T04:08:43;18.60;;;6.68;;
69253;SDS011;56364;41.816;12.448;2023-07-16T04:11:09;21.80;;;7.03;;
69253;SDS011;56364;41.816;12.448;2023-07-16T04:13:35;21.10;;;7.22;;
69253;SDS011;56364;41.816;12.448;2023-07-16T04:16:01;12.40;;;6.13;;
69253;SDS011;56364;41.816;12.448;2023-07-16T04:18:28;15.25;;;6.70;;
69253;SDS011;56364;41.816;12.448;2023-07-16T04:20:55;18.90;;;6.75;;
69253;SDS011;56364;41.816;12.448;2023-07-16T04:44:00;16.33;;;6.95;;
69253;SDS011;56364;41.816;12.448;2023-07-16T04:46:33;15.90;;;6.75;;
69253;SDS011;56364;41.816;12.448;2023-07-16T04:48:59;16.98;;;7.07;;
69253;SDS011;56364;41.816;12.448;2023-07-16T04:51:25;20.30;;;7.35;;
69253;SDS011;56364;41.816;12.448;2023-07-16T04:53:51;21.25;;;7.55;;
69253;SDS011;56364;41.816;12.448;2023-07-16T04:56:17;18.17;;;6.47;;
69253;SDS011;56364;41.816;12.448;2023-07-16T04:58:43;21.23;;;6.60;;
69253;SDS011;56364;41.816;12.448;2023-07-16T05:01:09;14.75;;;6.60;;
69253;SDS011;56364;41.816;12.448;2023-07-16T05:03:36;16.33;;;6.97;;
69253;SDS011;56364;41.816;12.448;2023-07-16T05:06:02;17.30;;;6.55;;
69253;SDS011;56364;41.816;12.448;2023-07-16T05:08:28;15.27;;;6.88;;
69253;SDS011;56364;41.816;12.448;2023-07-16T05:10:54;23.17;;;6.90;;
69253;SDS011;56364;41.816;12.448;2023-07-16T05:13:20;17.85;;;6.40;;
69253;SDS011;56364;41.816;12.448;2023-07-16T05:15:46;14.75;;;6.10;;
69253;SDS011;56364;41.816;12.448;2023-07-16T05:18:12;15.63;;;6.75;;
69253;SDS011;56364;41.816;12.448;2023-07-16T05:20:38;18.80;;;6.95;;
69253;SDS011;56364;41.816;12.448;2023-07-16T05:23:04;15.73;;;6.30;;
69253;SDS011;56364;41.816;12.448;2023-07-16T05:43:34;18.52;;;6.85;;
69253;SDS011;56364;41.816;12.448;2023-07-16T05:49:04;16.90;;;7.05;;
69253;SDS011;56364;41.816;12.448;2023-07-16T05:51:42;17.17;;;6.85;;
69253;SDS011;56364;41.816;12.448;2023-07-16T05:56:59;12.05;;;6.40;;
69253;SDS011;56364;41.816;12.448;2023-07-16T05:59:26;15.32;;;7.20;;
69253;SDS011;56364;41.816;12.448;2023-07-16T06:01:52;14.90;;;6.40;;
69253;SDS011;56364;41.816;12.448;2023-07-16T06:04:18;13.10;;;6.43;;
69253;SDS011;56364;41.816;12.448;2023-07-16T06:06:44;17.77;;;6.70;;
69253;SDS011;56364;41.816;12.448;2023-07-16T06:09:10;17.67;;;6.68;;
69253;SDS011;56364;41.816;12.448;2023-07-16T06:11:36;12.88;;;6.05;;
69253;SDS011;56364;41.816;12.448;2023-07-16T06:14:02;21.00;;;7.05;;
69253;SDS011;56364;41.816;12.448;2023-07-16T06:16:29;14.60;;;7.35;;
69253;SDS011;56364;41.816;12.448;2023-07-16T06:18:55;27.30;;;6.63;;
69253;SDS011;56364;41.816;12.448;2023-07-16T06:21:21;20.75;;;6.35;;
69253;SDS011;56364;41.816;12.448;2023-07-16T06:23:47;15.15;;;6.65;;
69253;SDS011;56364;41.816;12.448;2023-07-16T06:26:15;15.55;;;6.80;;
69253;SDS011;56364;41.816;12.448;2023-07-16T06:28:41;20.73;;;6.03;;
69253;SDS011;56364;41.816;12.448;2023-07-16T06:31:07;16.98;;;6.63;;
69253;SDS011;56364;41.816;12.448;2023-07-16T06:33:33;12.60;;;5.95;;
69253;SDS011;56364;41.816;12.448;2023-07-16T06:35:59;13.60;;;6.10;;
69253;SDS011;56364;41.816;12.448;2023-07-16T06:38:28;17.58;;;6.55;;
69253;SDS011;56364;41.816;12.448;2023-07-16T06:40:55;15.73;;;5.75;;
69253;SDS011;56364;41.816;12.448;2023-07-16T06:43:21;19.02;;;6.00;;
69253;SDS011;56364;41.816;12.448;2023-07-16T06:45:48;15.07;;;5.57;;
69253;SDS011;56364;41.816;12.448;2023-07-16T06:48:16;15.70;;;5.85;;
69253;SDS011;56364;41.816;12.448;2023-07-16T06:50:42;17.90;;;5.70;;
69253;SDS011;56364;41.816;12.448;2023-07-16T06:53:08;16.02;;;5.68;;
69253;SDS011;56364;41.816;12.448;2023-07-16T06:55:35;16.80;;;5.82;;
69253;SDS011;56364;41.816;12.448;2023-07-16T06:58:01;11.43;;;5.65;;
69253;SDS011;56364;41.816;12.448;2023-07-16T07:00:28;15.25;;;6.18;;
69253;SDS011;56364;41.816;12.448;2023-07-16T07:02:54;14.73;;;5.50;;
69253;SDS011;56364;41.816;12.448;2023-07-16T07:05:20;13.80;;;5.40;;
69253;SDS011;56364;41.816;12.448;2023-07-16T07:07:46;18.35;;;5.80;;
69253;SDS011;56364;41.816;12.448;2023-07-16T07:10:18;17.42;;;6.20;;
69253;SDS011;56364;41.816;12.448;2023-07-16T07:12:44;13.70;;;5.97;;
69253;SDS011;56364;41.816;12.448;2023-07-16T07:15:17;16.70;;;6.03;;
69253;SDS011;56364;41.816;12.448;2023-07-16T07:17:46;19.35;;;5.88;;
69253;SDS011;56364;41.816;12.448;2023-07-16T07:20:13;17.45;;;5.70;;
69253;SDS011;56364;41.816;12.448;2023-07-16T07:22:42;19.40;;;6.40;;
69253;SDS011;56364;41.816;12.448;2023-07-16T07:25:08;11.27;;;6.22;;
69253;SDS011;56364;41.816;12.448;2023-07-16T07:27:34;18.92;;;6.75;;
69253;SDS011;56364;41.816;12.448;2023-07-16T07:30:00;15.18;;;5.72;;
69253;SDS011;56364;41.816;12.448;2023-07-16T07:32:26;13.63;;;6.75;;
69253;SDS011;56364;41.816;12.448;2023-07-16T07:34:52;18.38;;;6.82;;
69253;SDS011;56364;41.816;12.448;2023-07-16T07:37:18;13.07;;;6.22;;
69253;SDS011;56364;41.816;12.448;2023-07-16T07:39:44;16.08;;;6.45;;
69253;SDS011;56364;41.816;12.448;2023-07-16T07:42:13;18.92;;;6.97;;
69253;SDS011;56364;41.816;12.448;2023-07-16T07:44:39;16.02;;;6.32;;
69253;SDS011;56364;41.816;12.448;2023-07-16T07:47:05;15.85;;;6.53;;
69253;SDS011;56364;41.816;12.448;2023-07-16T07:49:33;19.58;;;6.20;;
69253;SDS011;56364;41.816;12.448;2023-07-16T07:51:59;17.58;;;6.10;;
69253;SDS011;56364;41.816;12.448;2023-07-16T07:54:25;16.85;;;6.28;;
69253;SDS011;56364;41.816;12.448;2023-07-16T07:56:51;14.35;;;6.57;;
69253;SDS011;56364;41.816;12.448;2023-07-16T07:59:17;15.02;;;6.00;;
69253;SDS011;56364;41.816;12.448;2023-07-16T08:01:43;13.30;;;5.13;;
69253;SDS011;56364;41.816;12.448;2023-07-16T08:04:09;13.80;;;5.10;;
69253;SDS011;56364;41.816;12.448;2023-07-16T08:06:35;13.93;;;5.20;;
69253;SDS011;56364;41.816;12.448;2023-07-16T08:09:01;11.88;;;5.18;;
69253;SDS011;56364;41.816;12.448;2023-07-16T08:11:27;15.32;;;5.40;;
69253;SDS011;56364;41.816;12.448;2023-07-16T08:13:53;16.13;;;5.05;;
69253;SDS011;56364;41.816;12.448;2023-07-16T08:16:19;13.45;;;5.68;;
69253;SDS011;56364;41.816;12.448;2023-07-16T08:18:46;16.77;;;5.75;;
69253;SDS011;56364;41.816;12.448;2023-07-16T08:21:12;12.88;;;4.88;;
69253;SDS011;56364;41.816;12.448;2023-07-16T08:23:44;16.73;;;5.15;;
69253;SDS011;56364;41.816;12.448;2023-07-16T08:26:10;15.43;;;5.28;;
69253;SDS011;56364;41.816;12.448;2023-07-16T08:28:40;13.50;;;5.22;;
69253;SDS011;56364;41.816;12.448;2023-07-16T08:31:06;13.77;;;4.85;;
69253;SDS011;56364;41.816;12.448;2023-07-16T08:33:34;14.55;;;5.32;;
69253;SDS011;56364;41.816;12.448;2023-07-16T08:36:00;12.05;;;5.10;;
69253;SDS011;56364;41.816;12.448;2023-07-16T08:38:27;12.50;;;5.32;;
69253;SDS011;56364;41.816;12.448;2023-07-16T08:40:55;15.85;;;6.07;;
69253;SDS011;56364;41.816;12.448;2023-07-16T08:43:22;14.90;;;5.25;;
69253;SDS011;56364;41.816;12.448;2023-07-16T08:46:08;12.38;;;5.32;;
69253;SDS011;56364;41.816;12.448;2023-07-16T08:48:35;11.23;;;5.32;;
69253;SDS011;56364;41.816;12.448;2023-07-16T08:51:01;14.95;;;5.35;;
69253;SDS011;56364;41.816;12.448;2023-07-16T08:53:29;15.75;;;6.07;;
69253;SDS011;56364;41.816;12.448;2023-07-16T08:55:55;14.98;;;5.32;;
69253;SDS011;56364;41.816;12.448;2023-07-16T08:58:23;12.07;;;4.95;;
69253;SDS011;56364;41.816;12.448;2023-07-16T09:00:49;16.45;;;4.82;;
69253;SDS011;56364;41.816;12.448;2023-07-16T09:03:15;9.63;;;4.40;;
69253;SDS011;56364;41.816;12.448;2023-07-16T09:05:42;14.60;;;4.38;;
69253;SDS011;56364;41.816;12.448;2023-07-16T09:13:19;20.38;;;3.67;;
69253;SDS011;56364;41.816;12.448;2023-07-16T09:15:52;9.63;;;4.35;;
69253;SDS011;56364;41.816;12.448;2023-07-16T09:18:20;7.97;;;4.13;;
69253;SDS011;56364;41.816;12.448;2023-07-16T09:20:47;12.27;;;4.20;;
69253;SDS011;56364;41.816;12.448;2023-07-16T09:23:19;9.52;;;4.38;;
69253;SDS011;56364;41.816;12.448;2023-07-16T09:25:45;15.48;;;4.97;;
69253;SDS011;56364;41.816;12.448;2023-07-16T09:28:11;15.05;;;3.97;;
69253;SDS011;56364;41.816;12.448;2023-07-16T09:30:38;7.65;;;4.63;;
69253;SDS011;56364;41.816;12.448;2023-07-16T09:33:11;11.38;;;4.20;;
69253;SDS011;56364;41.816;12.448;2023-07-16T09:35:37;13.00;;;4.40;;
69253;SDS011;56364;41.816;12.448;2023-07-16T09:38:04;9.32;;;4.45;;
69253;SDS011;56364;41.816;12.448;2023-07-16T09:40:32;8.80;;;4.15;;
69253;SDS011;56364;41.816;12.448;2023-07-16T09:42:58;10.95;;;4.47;;
69253;SDS011;56364;41.816;12.448;2023-07-16T09:45:26;11.70;;;4.68;;
69253;SDS011;56364;41.816;12.448;2023-07-16T09:47:52;8.70;;;4.57;;
69253;SDS011;56364;41.816;12.448;2023-07-16T09:50:19;12.45;;;5.30;;
69253;SDS011;56364;41.816;12.448;2023-07-16T09:52:45;11.18;;;5.15;;
69253;SDS011;56364;41.816;12.448;2023-07-16T09:55:12;10.68;;;5.00;;
69253;SDS011;56364;41.816;12.448;2023-07-16T09:57:49;12.68;;;4.63;;
69253;SDS011;56364;41.816;12.448;2023-07-16T10:00:16;15.48;;;4.90;;
69253;SDS011;56364;41.816;12.448;2023-07-16T10:02:43;6.72;;;3.70;;
69253;SDS011;56364;41.816;12.448;2023-07-16T10:05:17;20.58;;;6.32;;
69253;SDS011;56364;41.816;12.448;2023-07-16T10:07:49;18.08;;;5.28;;
69253;SDS011;56364;41.816;12.448;2023-07-16T10:10:16;11.02;;;4.43;;
69253;SDS011;56364;41.816;12.448;2023-07-16T10:12:42;15.82;;;5.32;;
69253;SDS011;56364;41.816;12.448;2023-07-16T10:15:11;15.30;;;6.30;;
69253;SDS011;56364;41.816;12.448;2023-07-16T10:17:49;14.55;;;6.47;;
69253;SDS011;56364;41.816;12.448;2023-07-16T10:20:15;19.75;;;5.03;;
69253;SDS011;56364;41.816;12.448;2023-07-16T10:22:47;18.13;;;6.70;;
69253;SDS011;56364;41.816;12.448;2023-07-16T10:28:12;14.02;;;6.03;;
69253;SDS011;56364;41.816;12.448;2023-07-16T10:30:44;16.95;;;7.03;;
69253;SDS011;56364;41.816;12.448;2023-07-16T10:33:13;11.77;;;5.15;;
69253;SDS011;56364;41.816;12.448;2023-07-16T10:35:44;17.08;;;6.70;;
69253;SDS011;56364;41.816;12.448;2023-07-16T10:38:11;16.77;;;6.10;;
69253;SDS011;56364;41.816;12.448;2023-07-16T10:40:44;18.08;;;5.60;;
69253;SDS011;56364;41.816;12.448;2023-07-16T10:43:13;15.82;;;5.97;;
69253;SDS011;56364;41.816;12.448;2023-07-16T10:45:40;19.08;;;6.35;;
69253;SDS011;56364;41.816;12.448;2023-07-16T10:48:06;8.63;;;4.15;;
69253;SDS011;56364;41.816;12.448;2023-07-16T10:53:04;9.65;;;5.20;;
69253;SDS011;56364;41.816;12.448;2023-07-16T10:55:30;10.27;;;6.15;;
69253;SDS011;56364;41.816;12.448;2023-07-16T10:58:03;21.27;;;6.93;;
69253;SDS011;56364;41.816;12.448;2023-07-16T11:00:31;14.20;;;5.13;;
69253;SDS011;56364;41.816;12.448;2023-07-16T11:02:57;10.38;;;5.88;;
69253;SDS011;56364;41.816;12.448;2023-07-16T11:05:23;11.65;;;6.30;;
69253;SDS011;56364;41.816;12.448;2023-07-16T11:07:52;9.23;;;4.45;;
69253;SDS011;56364;41.816;12.448;2023-07-16T11:10:18;13.90;;;6.93;;
69253;SDS011;56364;41.816;12.448;2023-07-16T11:12:44;10.48;;;5.30;;
69253;SDS011;56364;41.816;12.448;2023-07-16T11:15:11;14.15;;;5.60;;
69253;SDS011;56364;41.816;12.448;2023-07-16T11:17:37;12.75;;;6.03;;
69253;SDS011;56364;41.816;12.448;2023-07-16T11:20:04;8.60;;;4.63;;
69253;SDS011;56364;41.816;12.448;2023-07-16T11:22:32;13.00;;;5.65;;
69253;SDS011;56364;41.816;12.448;2023-07-16T11:24:58;11.75;;;5.10;;
69253;SDS011;56364;41.816;12.448;2023-07-16T11:27:25;15.70;;;5.70;;
69253;SDS011;56364;41.816;12.448;2023-07-16T11:29:55;15.45;;;5.78;;
69253;SDS011;56364;41.816;12.448;2023-07-16T11:32:57;12.00;;;5.00;;
69253;SDS011;56364;41.816;12.448;2023-07-16T11:35:17;8.88;;;4.65;;
69253;SDS011;56364;41.816;12.448;2023-07-16T11:37:44;11.43;;;5.07;;
69253;SDS011;56364;41.816;12.448;2023-07-16T11:40:10;20.15;;;6.05;;
69253;SDS011;56364;41.816;12.448;2023-07-16T11:42:37;12.80;;;5.03;;
69253;SDS011;56364;41.816;12.448;2023-07-16T11:45:04;15.18;;;4.72;;
69253;SDS011;56364;41.816;12.448;2023-07-16T11:47:30;13.35;;;5.15;;
69253;SDS011;56364;41.816;12.448;2023-07-16T11:49:57;10.57;;;5.43;;
69253;SDS011;56364;41.816;12.448;2023-07-16T11:52:24;20.30;;;6.03;;
69253;SDS011;56364;41.816;12.448;2023-07-16T11:54:54;15.13;;;5.30;;
69253;SDS011;56364;41.816;12.448;2023-07-16T11:57:20;14.23;;;5.65;;
69253;SDS011;56364;41.816;12.448;2023-07-16T11:59:46;9.98;;;5.65;;
69253;SDS011;56364;41.816;12.448;2023-07-16T12:02:12;14.10;;;5.22;;
69253;SDS011;56364;41.816;12.448;2023-07-16T12:04:39;15.80;;;5.28;;
69253;SDS011;56364;41.816;12.448;2023-07-16T12:07:05;10.95;;;4.40;;
69253;SDS011;56364;41.816;12.448;2023-07-16T12:09:31;15.70;;;5.38;;
69253;SDS011;56364;41.816;12.448;2023-07-16T12:11:57;13.93;;;5.03;;
69253;SDS011;56364;41.816;12.448;2023-07-16T12:14:23;12.68;;;4.63;;
69253;SDS011;56364;41.816;12.448;2023-07-16T12:16:49;13.45;;;4.97;;
69253;SDS011;56364;41.816;12.448;2023-07-16T12:19:15;9.10;;;4.35;;
69253;SDS011;56364;41.816;12.448;2023-07-16T12:21:41;14.93;;;4.45;;
69253;SDS011;56364;41.816;12.448;2023-07-16T12:24:07;12.10;;;4.18;;
69253;SDS011;56364;41.816;12.448;2023-07-16T12:31:39;9.50;;;3.60;;
69253;SDS011;56364;41.816;12.448;2023-07-16T12:34:05;10.55;;;3.80;;
69253;SDS011;56364;41.816;12.448;2023-07-16T12:36:31;10.88;;;4.25;;
69253;SDS011;56364;41.816;12.448;2023-07-16T12:38:57;8.70;;;3.30;;
69253;SDS011;56364;41.816;12.448;2023-07-16T12:41:24;12.38;;;4.00;;
69253;SDS011;56364;41.816;12.448;2023-07-16T12:43:50;13.90;;;4.72;;
69253;SDS011;56364;41.816;12.448;2023-07-16T12:46:16;7.35;;;3.40;;
69253;SDS011;56364;41.816;12.448;2023-07-16T12:48:43;8.93;;;3.75;;
69253;SDS011;56364;41.816;12.448;2023-07-16T12:51:09;13.20;;;4.07;;
69253;SDS011;56364;41.816;12.448;2023-07-16T12:53:35;10.18;;;3.33;;
69253;SDS011;56364;41.816;12.448;2023-07-16T12:56:01;14.45;;;3.75;;
69253;SDS011;56364;41.816;12.448;2023-07-16T12:58:28;12.35;;;4.05;;
69253;SDS011;56364;41.816;12.448;2023-07-16T13:00:56;8.68;;;3.83;;
69253;SDS011;56364;41.816;12.448;2023-07-16T13:03:22;10.10;;;3.85;;
69253;SDS011;56364;41.816;12.448;2023-07-16T13:05:48;10.73;;;3.55;;
69253;SDS011;56364;41.816;12.448;2023-07-16T13:08:15;13.02;;;4.18;;
69253;SDS011;56364;41.816;12.448;2023-07-16T13:10:41;8.75;;;4.20;;
69253;SDS011;56364;41.816;12.448;2023-07-16T13:13:11;14.38;;;3.90;;
69253;SDS011;56364;41.816;12.448;2023-07-16T13:15:37;13.95;;;4.55;;
69253;SDS011;56364;41.816;12.448;2023-07-16T13:18:03;9.15;;;3.38;;
69253;SDS011;56364;41.816;12.448;2023-07-16T13:20:29;13.50;;;3.50;;
69253;SDS011;56364;41.816;12.448;2023-07-16T13:22:55;11.82;;;4.18;;
69253;SDS011;56364;41.816;12.448;2023-07-16T13:25:22;13.55;;;3.67;;
69253;SDS011;56364;41.816;12.448;2023-07-16T13:27:48;15.75;;;3.63;;
69253;SDS011;56364;41.816;12.448;2023-07-16T13:30:14;11.95;;;3.70;;
69253;SDS011;56364;41.816;12.448;2023-07-16T13:32:40;12.40;;;3.58;;
69253;SDS011;56364;41.816;12.448;2023-07-16T13:35:06;12.23;;;3.88;;
69253;SDS011;56364;41.816;12.448;2023-07-16T13:37:32;9.70;;;3.28;;
69253;SDS011;56364;41.816;12.448;2023-07-16T13:39:59;9.18;;;3.65;;
69253;SDS011;56364;41.816;12.448;2023-07-16T13:42:25;14.43;;;4.95;;
69253;SDS011;56364;41.816;12.448;2023-07-16T13:44:51;13.85;;;4.10;;
69253;SDS011;56364;41.816;12.448;2023-07-16T13:47:17;6.55;;;3.35;;
69253;SDS011;56364;41.816;12.448;2023-07-16T13:49:43;12.80;;;3.60;;
69253;SDS011;56364;41.816;12.448;2023-07-16T13:52:09;9.45;;;3.00;;
69253;SDS011;56364;41.816;12.448;2023-07-16T13:54:36;13.60;;;3.25;;
69253;SDS011;56364;41.816;12.448;2023-07-16T13:57:02;9.25;;;3.25;;
69253;SDS011;56364;41.816;12.448;2023-07-16T13:59:28;5.18;;;3.03;;
69253;SDS011;56364;41.816;12.448;2023-07-16T14:02:01;9.00;;;3.28;;
69253;SDS011;56364;41.816;12.448;2023-07-16T14:04:28;10.00;;;3.50;;
69253;SDS011;56364;41.816;12.448;2023-07-16T14:06:54;10.32;;;2.92;;
69253;SDS011;56364;41.816;12.448;2023-07-16T14:09:21;13.77;;;2.95;;
69253;SDS011;56364;41.816;12.448;2023-07-16T14:11:47;8.80;;;2.85;;
69253;SDS011;56364;41.816;12.448;2023-07-16T14:14:13;9.88;;;2.78;;
69253;SDS011;56364;41.816;12.448;2023-07-16T14:16:40;5.25;;;2.90;;
69253;SDS011;56364;41.816;12.448;2023-07-16T14:19:06;9.93;;;2.90;;
69253;SDS011;56364;41.816;12.448;2023-07-16T14:21:41;6.80;;;2.65;;
69253;SDS011;56364;41.816;12.448;2023-07-16T14:44:53;7.88;;;2.55;;
69253;SDS011;56364;41.816;12.448;2023-07-16T14:47:20;7.20;;;2.90;;
69253;SDS011;56364;41.816;12.448;2023-07-16T14:49:47;10.15;;;3.05;;
69253;SDS011;56364;41.816;12.448;2023-07-16T15:05:55;8.98;;;2.85;;
69253;SDS011;56364;41.816;12.448;2023-07-16T15:08:22;6.78;;;2.63;;
69253;SDS011;56364;41.816;12.448;2023-07-16T15:10:48;8.18;;;2.42;;
69253;SDS011;56364;41.816;12.448;2023-07-16T15:13:14;7.78;;;2.60;;
69253;SDS011;56364;41.816;12.448;2023-07-16T15:15:46;7.13;;;2.38;;
69253;SDS011;56364;41.816;12.448;2023-07-16T15:18:12;5.20;;;2.13;;
69253;SDS011;56364;41.816;12.448;2023-07-16T15:20:38;4.75;;;1.88;;
69253;SDS011;56364;41.816;12.448;2023-07-16T15:23:04;7.03;;;2.13;;
69253;SDS011;56364;41.816;12.448;2023-07-16T15:28:09;4.78;;;1.48;;
69253;SDS011;56364;41.816;12.448;2023-07-16T15:30:37;6.45;;;2.25;;
69253;SDS011;56364;41.816;12.448;2023-07-16T15:33:03;5.85;;;2.13;;
69253;SDS011;56364;41.816;12.448;2023-07-16T15:35:31;4.57;;;1.98;;
69253;SDS011;56364;41.816;12.448;2023-07-16T15:37:57;5.28;;;1.92;;
69253;SDS011;56364;41.816;12.448;2023-07-16T15:40:25;6.57;;;2.08;;
69253;SDS011;56364;41.816;12.448;2023-07-16T15:45:30;7.43;;;1.83;;
69253;SDS011;56364;41.816;12.448;2023-07-16T16:06:32;7.00;;;2.00;;
69253;SDS011;56364;41.816;12.448;2023-07-16T16:08:58;6.30;;;2.15;;
69253;SDS011;56364;41.816;12.448;2023-07-16T16:11:24;8.80;;;2.72;;
69253;SDS011;56364;41.816;12.448;2023-07-16T16:13:50;10.85;;;2.58;;
69253;SDS011;56364;41.816;12.448;2023-07-16T16:16:18;5.90;;;1.63;;
69253;SDS011;56364;41.816;12.448;2023-07-16T16:18:46;7.70;;;2.22;;
69253;SDS011;56364;41.816;12.448;2023-07-16T16:21:12;11.20;;;2.90;;
69253;SDS011;56364;41.816;12.448;2023-07-16T16:23:38;5.15;;;2.45;;
69253;SDS011;56364;41.816;12.448;2023-07-16T16:26:04;7.88;;;2.95;;
69253;SDS011;56364;41.816;12.448;2023-07-16T16:28:30;4.55;;;2.03;;
69253;SDS011;56364;41.816;12.448;2023-07-16T16:30:56;7.68;;;2.33;;
69253;SDS011;56364;41.816;12.448;2023-07-16T16:33:24;10.10;;;2.33;;
69253;SDS011;56364;41.816;12.448;2023-07-16T16:35:50;6.78;;;2.30;;
69253;SDS011;56364;41.816;12.448;2023-07-16T16:40:51;10.10;;;2.42;;
69253;SDS011;56364;41.816;12.448;2023-07-16T16:43:19;5.00;;;2.15;;